Time;durP1;ratioP1;P1;durP2;ratioP2;P2;SDS_P1;SDS_P2;PMS_P1;PMS_P2;Temp;Humidity;BMP_temperature;BMP_pressure;BME280_temperature;BME280_humidity;BME280_pressure;Samples;Min_cycle;Max_cycle;Signal;HPM_P1;HPM_P2
2024/01/13 00:01:22;;;;;;;16.17;7.82;;;0.10;99.90;;;;;;2602700;54;20967;31
2024/01/13 00:03:58;;;;;;;16.75;7.13;;;0.10;99.90;;;;;;2603069;54;20751;31
2024/01/13 00:06:37;;;;;;;14.77;7.20;;;0.10;99.90;;;;;;2602115;54;20731;31
2024/01/13 00:09:16;;;;;;;13.68;6.38;;;0.10;99.90;;;;;;2602756;54;20029;31
2024/01/13 00:11:57;;;;;;;15.33;7.67;;;0.10;99.90;;;;;;2602882;54;20870;31
2024/01/13 00:14:34;;;;;;;13.15;6.55;;;0.20;99.90;;;;;;2602808;54;20250;31
2024/01/13 00:17:12;;;;;;;18.35;7.63;;;0.20;99.90;;;;;;2602003;54;20886;31
2024/01/13 00:19:49;;;;;;;15.10;7.40;;;0.20;99.90;;;;;;2602017;54;20977;31
2024/01/13 00:22:25;;;;;;;13.37;6.83;;;0.20;99.90;;;;;;2601896;54;20888;31
2024/01/13 00:25:01;;;;;;;15.57;7.38;;;0.20;99.90;;;;;;2602863;54;20241;31
2024/01/13 00:27:41;;;;;;;15.60;7.53;;;0.20;99.90;;;;;;2602711;54;20090;31
2024/01/13 00:30:18;;;;;;;17.92;7.20;;;0.20;99.90;;;;;;2602920;54;20876;31
2024/01/13 00:32:53;;;;;;;15.00;6.57;;;0.20;99.90;;;;;;2602678;54;20901;31
2024/01/13 00:35:29;;;;;;;17.38;7.60;;;0.20;99.90;;;;;;2621084;46;21204;31
2024/01/13 00:38:07;;;;;;;15.50;7.50;;;0.20;99.90;;;;;;2621253;46;20913;31
2024/01/13 00:40:47;;;;;;;14.47;7.53;;;0.20;99.90;;;;;;2602681;54;20913;31
2024/01/13 00:43:26;;;;;;;16.45;7.15;;;0.20;99.90;;;;;;2613879;46;20250;31
2024/01/13 00:46:01;;;;;;;16.98;7.65;;;0.30;99.90;;;;;;2602766;54;20864;31
2024/01/13 00:48:38;;;;;;;16.10;7.80;;;0.30;99.90;;;;;;2602738;54;20038;31
2024/01/13 00:51:15;;;;;;;16.50;7.70;;;0.30;99.90;;;;;;2602702;54;21187;31
2024/01/13 00:53:51;;;;;;;17.67;7.88;;;0.30;99.90;;;;;;2602813;54;21069;31
2024/01/13 00:56:27;;;;;;;20.40;8.05;;;0.30;99.90;;;;;;2602563;54;20026;31
2024/01/13 00:59:08;;;;;;;16.80;8.67;;;0.40;99.90;;;;;;2602875;54;20034;31
2024/01/13 01:01:46;;;;;;;17.10;7.53;;;0.30;99.90;;;;;;2621221;46;20022;31
2024/01/13 01:04:21;;;;;;;13.73;7.50;;;0.30;99.90;;;;;;2602513;54;21099;31
2024/01/13 01:06:56;;;;;;;19.20;7.75;;;0.30;99.90;;;;;;2602638;54;20850;31
2024/01/13 01:09:31;;;;;;;16.37;7.27;;;0.30;99.90;;;;;;2602456;54;20887;31
2024/01/13 01:12:09;;;;;;;15.43;8.57;;;0.30;99.90;;;;;;2602545;54;20337;31
2024/01/13 01:14:50;;;;;;;17.55;8.40;;;0.30;99.90;;;;;;2602669;54;20839;31
2024/01/13 01:17:27;;;;;;;17.70;8.03;;;0.30;99.90;;;;;;2602453;54;20996;31
2024/01/13 01:20:02;;;;;;;17.80;7.45;;;0.10;99.90;;;;;;2602628;54;20329;31
2024/01/13 01:22:39;;;;;;;17.00;7.90;;;0.30;99.90;;;;;;2602656;54;20026;31
2024/01/13 01:25:20;;;;;;;13.07;7.38;;;0.30;99.90;;;;;;2602505;54;20066;31
2024/01/13 01:28:00;;;;;;;16.10;7.03;;;0.30;99.90;;;;;;2602469;54;20029;31
2024/01/13 01:30:38;;;;;;;16.00;7.28;;;0.20;99.90;;;;;;2602482;54;20933;31
2024/01/13 01:33:15;;;;;;;14.73;7.28;;;0.30;99.90;;;;;;2620925;47;20926;31
2024/01/13 01:35:52;;;;;;;16.30;6.57;;;0.30;99.90;;;;;;2612664;47;20888;31
2024/01/13 01:38:28;;;;;;;18.48;7.38;;;0.30;99.90;;;;;;2602535;54;20239;31
2024/01/13 01:41:18;;;;;;;17.23;7.07;;;0.30;99.90;;;;;;2602366;54;20026;31
2024/01/13 01:43:56;;;;;;;14.80;7.32;;;0.30;99.90;;;;;;2602580;54;20033;31
2024/01/13 01:46:39;;;;;;;13.57;6.47;;;0.30;99.90;;;;;;2602616;54;20715;31
2024/01/13 01:49:15;;;;;;;14.38;6.82;;;0.30;99.90;;;;;;2602618;54;20034;31
2024/01/13 01:51:52;;;;;;;14.30;5.80;;;;;;;;;;2602434;54;20902;31
2024/01/13 01:54:30;;;;;;;11.95;6.45;;;0.40;99.90;;;;;;2602120;54;20052;31
2024/01/13 01:57:06;;;;;;;18.85;7.30;;;0.40;99.90;;;;;;2602336;54;20061;31
2024/01/13 01:59:44;;;;;;;12.15;5.82;;;0.40;99.90;;;;;;2602269;54;20030;31
2024/01/13 02:02:26;;;;;;;14.35;6.32;;;0.30;99.90;;;;;;2620919;47;20034;31
2024/01/13 02:05:08;;;;;;;17.25;6.85;;;0.40;99.90;;;;;;2602490;54;22376;31
2024/01/13 02:07:45;;;;;;;13.17;6.40;;;0.40;99.90;;;;;;2602734;54;20862;31
2024/01/13 02:10:22;;;;;;;10.88;5.55;;;0.30;99.90;;;;;;2620774;47;20335;31
2024/01/13 02:12:57;;;;;;;11.63;6.38;;;0.30;99.90;;;;;;2602562;54;20884;31
2024/01/13 02:15:33;;;;;;;14.70;7.05;;;0.30;99.90;;;;;;2603353;54;20869;31
2024/01/13 02:18:12;;;;;;;16.77;6.07;;;0.40;99.90;;;;;;2603193;54;20026;31
2024/01/13 02:21:05;;;;;;;13.18;5.80;;;0.40;99.90;;;;;;2621916;46;20022;31
2024/01/13 02:23:43;;;;;;;11.70;5.50;;;0.40;99.90;;;;;;2602905;54;20145;31
2024/01/13 02:26:22;;;;;;;15.03;5.37;;;0.40;99.90;;;;;;2603102;54;20876;31
2024/01/13 02:29:00;;;;;;;14.25;6.47;;;0.40;99.90;;;;;;2621662;46;21003;31
2024/01/13 02:31:34;;;;;;;10.50;5.82;;;0.40;99.90;;;;;;2603474;54;20856;31
2024/01/13 02:34:10;;;;;;;14.40;6.07;;;0.40;99.90;;;;;;2603085;54;20026;31
2024/01/13 02:36:51;;;;;;;12.20;5.75;;;0.40;99.90;;;;;;2602459;54;21093;31
2024/01/13 02:39:32;;;;;;;12.65;5.90;;;0.40;99.90;;;;;;2602993;54;20068;31
2024/01/13 02:42:06;;;;;;;12.93;6.28;;;0.40;99.90;;;;;;2603005;54;20780;31
2024/01/13 02:44:43;;;;;;;14.27;6.03;;;0.40;99.90;;;;;;2603266;54;20886;31
2024/01/13 02:47:21;;;;;;;17.25;6.03;;;0.40;99.90;;;;;;2621406;46;20954;31
2024/01/13 02:50:10;;;;;;;14.73;5.70;;;0.40;99.90;;;;;;2603091;54;20085;31
2024/01/13 02:52:47;;;;;;;10.32;5.25;;;0.40;99.90;;;;;;2603116;54;20030;31
2024/01/13 02:55:26;;;;;;;14.30;5.87;;;0.40;99.90;;;;;;2603065;54;20072;31
2024/01/13 02:58:03;;;;;;;15.57;5.30;;;0.40;99.90;;;;;;2603037;54;21072;31
2024/01/13 03:00:37;;;;;;;13.83;6.33;;;0.40;99.90;;;;;;2603116;54;20854;31
2024/01/13 03:03:13;;;;;;;15.57;6.18;;;0.40;99.90;;;;;;2621457;46;22633;31
2024/01/13 03:05:49;;;;;;;13.95;6.25;;;0.40;99.90;;;;;;2621565;46;20022;31
2024/01/13 03:08:26;;;;;;;11.50;5.57;;;0.40;99.90;;;;;;2602965;54;20865;31
2024/01/13 03:11:18;;;;;;;12.85;6.05;;;0.40;99.90;;;;;;2603012;54;20890;31
2024/01/13 03:13:58;;;;;;;13.93;6.53;;;0.40;99.90;;;;;;2602886;54;20933;31
2024/01/13 03:16:34;;;;;;;12.77;5.68;;;0.40;99.90;;;;;;2603186;54;20026;31
2024/01/13 03:19:11;;;;;;;15.43;6.13;;;0.50;99.90;;;;;;2602921;54;20059;31
2024/01/13 03:21:48;;;;;;;9.15;5.50;;;0.50;99.90;;;;;;2602892;54;20029;31
2024/01/13 03:24:26;;;;;;;13.73;6.15;;;0.50;99.90;;;;;;2621342;46;20026;31
2024/01/13 03:29:39;;;;;;;9.75;5.28;;;0.50;99.90;;;;;;2603155;54;21250;31
2024/01/13 03:32:15;;;;;;;12.27;6.30;;;0.50;99.90;;;;;;2603145;54;20869;31
2024/01/13 03:34:50;;;;;;;13.68;6.38;;;0.50;99.90;;;;;;2603066;54;20038;31
2024/01/13 03:37:26;;;;;;;14.53;6.17;;;0.50;99.90;;;;;;2602890;54;20837;31
2024/01/13 03:40:03;;;;;;;12.10;6.15;;;0.50;99.90;;;;;;2621513;46;20968;31
2024/01/13 03:42:39;;;;;;;14.07;5.93;;;0.50;99.90;;;;;;2617258;46;20948;31
2024/01/13 03:45:18;;;;;;;13.27;6.67;;;0.50;99.90;;;;;;2602890;54;20089;31
2024/01/13 03:47:54;;;;;;;14.65;6.72;;;0.50;99.90;;;;;;2621541;46;21007;31
2024/01/13 03:50:31;;;;;;;14.13;6.15;;;0.50;99.90;;;;;;2603049;54;20914;31
2024/01/13 03:53:08;;;;;;;14.50;6.35;;;0.50;99.90;;;;;;2602714;54;20031;31
2024/01/13 03:55:44;;;;;;;11.50;6.28;;;0.50;99.90;;;;;;2602832;54;20027;31
2024/01/13 03:58:20;;;;;;;13.20;6.63;;;0.50;99.90;;;;;;2602807;54;20048;31
2024/01/13 04:00:57;;;;;;;9.93;5.43;;;0.50;99.90;;;;;;2603052;54;20085;31
2024/01/13 04:03:33;;;;;;;10.85;6.32;;;0.50;99.90;;;;;;2603076;54;20022;31
2024/01/13 04:06:12;;;;;;;13.05;6.88;;;0.50;99.90;;;;;;2602632;54;20027;31
2024/01/13 04:08:49;;;;;;;13.80;6.85;;;0.50;99.90;;;;;;2603092;54;20038;31
2024/01/13 04:11:26;;;;;;;16.40;6.15;;;0.50;99.90;;;;;;2602577;54;20767;31
2024/01/13 04:14:03;;;;;;;14.13;6.03;;;0.50;99.90;;;;;;2602948;54;20916;31
2024/01/13 04:16:46;;;;;;;13.70;6.30;;;0.50;99.90;;;;;;2602639;54;21082;31
2024/01/13 04:19:23;;;;;;;13.68;5.82;;;0.50;99.90;;;;;;2602671;54;20265;31
2024/01/13 04:22:02;;;;;;;13.75;6.63;;;0.50;99.90;;;;;;2621364;46;20026;31
2024/01/13 04:24:38;;;;;;;11.85;6.40;;;0.60;99.90;;;;;;2602395;54;22176;31
2024/01/13 04:27:15;;;;;;;14.85;6.90;;;0.50;99.90;;;;;;2602780;54;20956;31
2024/01/13 04:29:50;;;;;;;15.25;6.43;;;0.50;99.90;;;;;;2602699;54;20798;31
2024/01/13 04:32:29;;;;;;;;;;;0.60;99.90;;;;;;2603118;54;20739;31
2024/01/13 04:35:06;;;;;;;12.85;5.05;;;0.60;99.90;;;;;;2621105;46;19935;31
2024/01/13 04:37:41;;;;;;;10.30;5.80;;;0.60;99.90;;;;;;2602720;54;20797;31
2024/01/13 04:40:17;;;;;;;10.60;5.72;;;0.60;99.90;;;;;;2620498;46;20045;31
2024/01/13 04:42:55;;;;;;;14.20;6.40;;;0.60;99.90;;;;;;2602783;54;20034;31
2024/01/13 04:45:31;;;;;;;12.25;5.60;;;0.60;99.90;;;;;;2602514;54;20031;31
2024/01/13 04:48:08;;;;;;;13.20;5.32;;;0.60;99.90;;;;;;2602666;54;21001;31
2024/01/13 04:50:47;;;;;;;12.18;5.38;;;0.60;99.90;;;;;;2602694;54;20023;31
2024/01/13 04:53:25;;;;;;;15.27;6.70;;;0.60;99.90;;;;;;2602512;54;20032;31
2024/01/13 04:56:01;;;;;;;13.63;5.80;;;0.60;99.90;;;;;;2602796;54;21058;31
2024/01/13 04:58:36;;;;;;;;;;;0.60;99.90;;;;;;2602808;54;20038;31
2024/01/13 05:01:12;;;;;;;11.10;5.30;;;0.60;99.90;;;;;;2602521;54;20698;31
2024/01/13 05:03:52;;;;;;;14.10;6.20;;;0.60;99.90;;;;;;2602465;54;20906;31
2024/01/13 05:06:27;;;;;;;11.43;5.78;;;0.60;99.90;;;;;;2602601;54;20077;31
2024/01/13 05:09:04;;;;;;;11.75;5.13;;;0.60;99.90;;;;;;2602810;54;20033;31
2024/01/13 05:11:42;;;;;;;12.55;5.70;;;0.60;99.90;;;;;;2602995;54;20832;31
2024/01/13 05:14:19;;;;;;;12.82;5.88;;;0.60;99.90;;;;;;2602553;54;20046;31
2024/01/13 05:16:56;;;;;;;12.75;5.85;;;0.60;99.90;;;;;;2620934;47;20030;31
2024/01/13 05:19:37;;;;;;;10.48;5.28;;;0.60;99.90;;;;;;2602286;54;20052;31
2024/01/13 05:22:12;;;;;;;13.32;5.38;;;0.60;99.90;;;;;;2620893;47;20037;31
2024/01/13 05:24:51;;;;;;;12.40;5.38;;;0.60;99.90;;;;;;2620984;47;20113;31
2024/01/13 05:27:26;;;;;;;13.27;6.20;;;0.70;99.90;;;;;;2621046;47;20027;31
2024/01/13 05:30:01;;;;;;;11.90;5.70;;;0.70;99.90;;;;;;2602437;54;20133;31
2024/01/13 05:32:39;;;;;;;9.32;4.85;;;0.70;99.90;;;;;;2601781;54;20104;31
2024/01/13 05:35:18;;;;;;;12.25;6.22;;;0.60;99.90;;;;;;2602604;54;20886;31
2024/01/13 05:37:55;;;;;;;11.50;5.57;;;0.70;99.90;;;;;;2602488;54;20996;31
2024/01/13 05:40:32;;;;;;;13.40;5.47;;;0.70;99.90;;;;;;2620969;47;21082;31
2024/01/13 05:43:09;;;;;;;11.57;5.07;;;0.70;99.90;;;;;;2602541;54;20242;31
2024/01/13 05:45:47;;;;;;;11.77;5.63;;;0.70;99.90;;;;;;2620635;47;20922;31
2024/01/13 05:48:23;;;;;;;11.50;5.90;;;0.60;99.90;;;;;;2603238;54;20030;31
2024/01/13 05:51:02;;;;;;;11.93;5.68;;;0.60;99.90;;;;;;2603347;54;20892;31
2024/01/13 05:53:38;;;;;;;11.70;6.47;;;0.60;99.90;;;;;;2603381;54;20030;31
2024/01/13 05:56:14;;;;;;;8.80;4.90;;;0.60;99.90;;;;;;2603264;54;22203;31
2024/01/13 05:58:52;;;;;;;11.25;5.10;;;0.60;99.90;;;;;;2603297;54;20247;31
2024/01/13 06:01:29;;;;;;;12.27;5.97;;;0.70;99.90;;;;;;2603227;54;20038;31
2024/01/13 06:04:07;;;;;;;13.07;5.35;;;0.60;99.90;;;;;;2603224;54;20030;31
2024/01/13 06:06:46;;;;;;;11.20;6.00;;;0.60;99.90;;;;;;2603409;54;20022;31
2024/01/13 06:09:22;;;;;;;12.13;5.40;;;0.60;99.90;;;;;;2603340;54;20719;31
2024/01/13 06:11:54;;;;;;;;;;;0.60;99.90;;;;;;2702175;39;21095;31
2024/01/13 06:14:29;;;;;;;9.73;4.68;;;0.60;99.90;;;;;;2621849;46;20767;31
2024/01/13 06:17:06;;;;;;;10.65;5.05;;;0.60;99.90;;;;;;2603105;54;20030;31
2024/01/13 06:19:42;;;;;;;13.37;5.80;;;0.70;99.90;;;;;;2603110;54;20953;31
2024/01/13 06:22:22;;;;;;;9.20;4.97;;;0.60;99.90;;;;;;2603060;54;20237;31
2024/01/13 06:24:57;;;;;;;10.90;5.47;;;0.60;99.90;;;;;;2603397;54;21128;31
2024/01/13 06:27:33;;;;;;;10.50;5.20;;;0.70;99.90;;;;;;2621914;46;20034;31
2024/01/13 06:30:12;;;;;;;9.47;5.27;;;0.60;99.90;;;;;;2603270;54;20030;31
2024/01/13 06:32:51;;;;;;;11.73;5.85;;;0.60;99.90;;;;;;2621555;46;20300;31
2024/01/13 06:35:26;;;;;;;9.20;4.55;;;0.60;99.90;;;;;;2603063;54;20081;31
2024/01/13 06:38:06;;;;;;;11.38;6.05;;;0.60;99.90;;;;;;2603019;54;20973;31
2024/01/13 06:40:42;;;;;;;12.15;5.80;;;0.60;99.90;;;;;;2603063;54;20026;31
2024/01/13 06:43:18;;;;;;;11.15;5.95;;;0.60;99.90;;;;;;2622084;46;20029;31
2024/01/13 06:45:53;;;;;;;9.75;5.65;;;0.60;99.90;;;;;;2603071;54;20775;31
2024/01/13 06:48:28;;;;;;;11.35;5.95;;;0.60;99.90;;;;;;2621658;46;20175;31
2024/01/13 06:51:08;;;;;;;10.25;5.82;;;0.60;99.90;;;;;;2602942;54;20870;31
2024/01/13 06:53:46;;;;;;;8.65;5.10;;;0.60;99.90;;;;;;2603070;54;20038;31
2024/01/13 06:56:23;;;;;;;14.80;7.47;;;0.60;99.90;;;;;;2621068;46;20033;31
2024/01/13 06:59:00;;;;;;;11.70;6.00;;;0.70;99.90;;;;;;2602766;54;20030;31
2024/01/13 07:01:38;;;;;;;12.27;6.40;;;0.70;99.90;;;;;;2602772;54;20145;31
2024/01/13 07:04:13;;;;;;;9.68;5.90;;;0.60;99.90;;;;;;2621622;46;20022;31
2024/01/13 07:06:50;;;;;;;14.82;7.70;;;0.60;99.90;;;;;;2603265;54;20964;31
2024/01/13 07:09:28;;;;;;;17.38;8.32;;;0.60;99.90;;;;;;2602991;54;20037;31
2024/01/13 07:12:04;;;;;;;15.47;8.20;;;0.70;99.90;;;;;;2603123;54;20850;31
2024/01/13 07:14:42;;;;;;;20.95;9.88;;;0.80;99.90;;;;;;2621386;46;20349;31
2024/01/13 07:17:16;;;;;;;14.15;6.65;;;0.90;99.90;;;;;;2603173;54;20897;31
2024/01/13 07:19:55;;;;;;;16.35;7.57;;;0.90;99.90;;;;;;2602903;54;20913;31
2024/01/13 07:22:30;;;;;;;14.15;6.90;;;0.90;99.90;;;;;;2603018;54;20049;31
2024/01/13 07:25:10;;;;;;;12.20;7.03;;;0.90;99.90;;;;;;2603051;54;20854;31
2024/01/13 07:27:50;;;;;;;12.35;5.78;;;1.10;99.90;;;;;;2602934;54;20879;31
2024/01/13 07:31:05;;;;;;;10.68;6.07;;;1.20;99.90;;;;;;2645789;53;20946;31
2024/01/13 07:33:40;;;;;;;12.80;6.35;;;1.30;99.90;;;;;;2607006;54;21225;31
2024/01/13 07:36:19;;;;;;;12.18;6.63;;;1.40;99.90;;;;;;2606637;54;20037;31
2024/01/13 07:38:54;;;;;;;10.47;5.40;;;1.30;99.90;;;;;;2607268;54;20884;31
2024/01/13 07:41:29;;;;;;;11.43;8.03;;;1.30;99.90;;;;;;2625498;46;20247;31
2024/01/13 07:44:04;;;;;;;10.82;6.05;;;1.30;99.90;;;;;;2625663;46;20030;31
2024/01/13 07:46:45;;;;;;;9.45;5.90;;;1.20;99.90;;;;;;2607250;54;20119;31
2024/01/13 07:49:19;;;;;;;10.10;6.40;;;1.20;99.90;;;;;;2607139;54;20037;31
2024/01/13 07:51:54;;;;;;;11.90;6.40;;;1.20;99.90;;;;;;2607338;54;20866;31
2024/01/13 07:54:29;;;;;;;12.05;6.10;;;1.20;99.90;;;;;;2606919;54;21216;31
2024/01/13 07:57:04;;;;;;;11.02;6.22;;;1.20;99.90;;;;;;2607186;54;20872;31
2024/01/13 07:59:39;;;;;;;9.83;5.77;;;1.20;99.90;;;;;;2607073;54;20139;31
2024/01/13 08:02:17;;;;;;;12.17;6.20;;;1.20;99.90;;;;;;2607163;54;20905;31
2024/01/13 08:04:51;;;;;;;10.05;6.28;;;1.20;99.90;;;;;;2607047;54;20276;31
2024/01/13 08:07:26;;;;;;;9.35;4.85;;;1.20;99.90;;;;;;2606798;54;20050;31
2024/01/13 08:10:01;;;;;;;11.98;5.78;;;1.20;99.90;;;;;;2625527;46;20064;31
2024/01/13 08:12:37;;;;;;;10.25;5.55;;;1.20;99.90;;;;;;2625392;46;20100;31
2024/01/13 08:15:12;;;;;;;8.90;5.05;;;1.20;99.90;;;;;;2625355;46;20030;31
2024/01/13 08:17:53;;;;;;;9.30;5.57;;;1.20;99.90;;;;;;2606850;54;20770;31
2024/01/13 08:20:29;;;;;;;11.60;6.32;;;1.20;99.90;;;;;;2606903;54;20037;31
2024/01/13 08:23:05;;;;;;;11.82;5.65;;;1.20;99.90;;;;;;2625252;46;20953;31
2024/01/13 08:25:40;;;;;;;9.80;5.30;;;1.20;99.90;;;;;;2625764;46;20089;31
2024/01/13 08:28:15;;;;;;;11.80;6.40;;;1.20;99.90;;;;;;2606929;54;20077;31
2024/01/13 08:30:50;;;;;;;8.18;5.07;;;1.20;99.90;;;;;;2606872;54;20030;31
2024/01/13 08:33:31;;;;;;;9.17;5.37;;;1.20;99.90;;;;;;2606984;54;20838;31
2024/01/13 08:36:07;;;;;;;8.55;4.90;;;1.20;99.90;;;;;;2606963;54;20060;31
2024/01/13 08:38:44;;;;;;;13.07;5.97;;;1.20;99.90;;;;;;2606790;54;20894;31
2024/01/13 08:41:18;;;;;;;8.95;4.97;;;1.20;99.90;;;;;;2605187;54;20038;31
2024/01/13 08:44:07;;;;;;;9.50;5.10;;;1.20;99.90;;;;;;2603501;54;20103;31
2024/01/13 08:46:41;;;;;;;10.43;5.97;;;1.30;99.90;;;;;;2603608;54;20760;31
2024/01/13 08:49:19;;;;;;;9.35;5.18;;;1.30;99.90;;;;;;2603200;54;20264;31
2024/01/13 08:51:54;;;;;;;6.33;4.03;;;1.30;99.90;;;;;;2603289;54;20038;31
2024/01/13 08:54:29;;;;;;;10.10;5.05;;;1.30;99.90;;;;;;2621630;46;20738;31
2024/01/13 08:57:04;;;;;;;9.07;5.53;;;1.30;99.90;;;;;;2603271;54;20886;31
2024/01/13 08:59:40;;;;;;;9.03;4.83;;;1.40;99.90;;;;;;2603403;54;20876;31
2024/01/13 09:02:14;;;;;;;10.30;5.37;;;1.40;99.90;;;;;;2603205;54;20951;31
2024/01/13 09:04:52;;;;;;;8.98;5.05;;;1.40;99.90;;;;;;2603397;54;21203;31
2024/01/13 09:07:27;;;;;;;9.10;5.40;;;1.50;99.90;;;;;;2621633;46;20770;31
2024/01/13 09:10:02;;;;;;;11.77;6.05;;;1.50;99.90;;;;;;2603447;54;20858;31
2024/01/13 09:12:37;;;;;;;9.25;5.30;;;1.50;99.90;;;;;;2621385;46;20031;31
2024/01/13 09:15:13;;;;;;;10.38;5.97;;;1.60;99.90;;;;;;2621675;46;20027;31
2024/01/13 09:17:48;;;;;;;7.68;4.93;;;1.60;99.90;;;;;;2621471;46;20805;31
2024/01/13 09:20:26;;;;;;;7.50;4.65;;;1.60;99.90;;;;;;2603268;54;20108;31
2024/01/13 09:23:00;;;;;;;8.77;4.87;;;1.60;99.90;;;;;;2603230;54;20891;31
2024/01/13 09:25:35;;;;;;;8.82;4.97;;;1.60;99.90;;;;;;2603315;54;21048;31
2024/01/13 09:28:10;;;;;;;8.32;5.15;;;1.70;99.90;;;;;;2603266;54;20031;31
2024/01/13 09:30:45;;;;;;;7.05;4.82;;;1.70;99.90;;;;;;2603006;54;20898;31
2024/01/13 09:33:20;;;;;;;8.15;3.95;;;1.70;99.90;;;;;;2621304;46;20038;31
2024/01/13 09:35:58;;;;;;;8.30;4.10;;;1.70;99.90;;;;;;2603129;54;20901;31
2024/01/13 09:38:32;;;;;;;6.40;3.70;;;1.70;99.90;;;;;;2603173;54;20874;31
2024/01/13 09:41:08;;;;;;;8.02;3.58;;;1.60;99.90;;;;;;2603282;54;20898;31
2024/01/13 09:43:52;;;;;;;7.80;3.58;;;1.70;99.90;;;;;;2603267;54;20728;31
2024/01/13 09:46:29;;;;;;;7.80;3.95;;;1.70;99.90;;;;;;2603151;54;20033;31
2024/01/13 09:49:02;;;;;;;5.32;3.25;;;1.70;99.90;;;;;;2621788;46;20026;31
2024/01/13 09:51:40;;;;;;;6.00;3.40;;;1.70;99.90;;;;;;2603056;54;20033;31
2024/01/13 09:54:15;;;;;;;5.95;3.13;;;1.70;99.90;;;;;;2602833;54;20038;31
2024/01/13 09:56:53;;;;;;;5.38;3.33;;;1.70;99.90;;;;;;2603067;54;20759;31
2024/01/13 09:59:28;;;;;;;5.43;2.80;;;1.70;99.90;;;;;;2621666;46;20883;31
2024/01/13 10:02:07;;;;;;;5.73;2.93;;;1.70;99.90;;;;;;2602934;54;20898;31
2024/01/13 10:04:42;;;;;;;;;;;1.70;99.90;;;;;;2621536;46;20251;31
2024/01/13 10:07:19;;;;;;;5.50;3.00;;;1.70;99.90;;;;;;2603013;54;20744;31
2024/01/13 10:10:02;;;;;;;5.25;3.10;;;1.70;99.90;;;;;;2621645;46;20962;31
2024/01/13 10:12:45;;;;;;;6.53;3.50;;;1.70;99.90;;;;;;2603021;54;20086;31
2024/01/13 10:15:20;;;;;;;6.25;3.75;;;1.70;99.90;;;;;;2602975;54;20022;31
2024/01/13 10:17:55;;;;;;;8.70;4.57;;;1.70;99.90;;;;;;2621403;46;20030;31
2024/01/13 10:20:30;;;;;;;7.93;4.35;;;1.80;99.90;;;;;;2602985;54;20048;31
2024/01/13 10:23:07;;;;;;;8.60;4.32;;;1.80;99.90;;;;;;2602873;54;20030;31
2024/01/13 10:25:41;;;;;;;12.80;5.75;;;1.80;99.90;;;;;;2603156;54;20030;31
2024/01/13 10:28:15;;;;;;;18.83;6.80;;;1.80;99.90;;;;;;2603039;54;20019;31
2024/01/13 10:30:52;;;;;;;22.75;8.13;;;1.80;99.90;;;;;;2621374;46;20033;31
2024/01/13 10:33:31;;;;;;;20.23;6.93;;;1.80;99.90;;;;;;2602871;54;20031;31
2024/01/13 10:36:09;;;;;;;8.43;4.75;;;1.90;99.90;;;;;;2603074;54;20026;31
2024/01/13 10:38:47;;;;;;;9.47;4.93;;;1.90;99.90;;;;;;2621256;46;20030;31
2024/01/13 10:41:24;;;;;;;9.82;4.22;;;1.90;99.90;;;;;;2621794;46;20840;31
2024/01/13 10:44:02;;;;;;;7.07;3.90;;;1.90;99.90;;;;;;2602975;54;20830;31
2024/01/13 10:46:39;;;;;;;7.45;4.00;;;1.90;99.90;;;;;;2621288;46;20808;31
2024/01/13 10:49:16;;;;;;;6.38;3.33;;;1.90;99.90;;;;;;2603066;54;20046;31
2024/01/13 10:51:53;;;;;;;6.63;3.47;;;2.00;99.90;;;;;;2603009;54;20866;31
2024/01/13 10:54:32;;;;;;;8.82;4.38;;;2.00;99.90;;;;;;2602847;54;20239;31
2024/01/13 10:57:09;;;;;;;5.23;2.80;;;2.00;99.90;;;;;;2621196;46;20036;31
2024/01/13 10:59:43;;;;;;;5.22;2.95;;;2.00;99.90;;;;;;2603017;54;20977;31
2024/01/13 11:02:19;;;;;;;5.50;3.03;;;2.00;99.90;;;;;;2602809;54;20037;31
2024/01/13 11:04:55;;;;;;;5.27;3.20;;;2.00;99.90;;;;;;2602732;54;20078;31
2024/01/13 11:07:31;;;;;;;12.38;4.50;;;2.00;99.90;;;;;;2602915;54;20053;31
2024/01/13 11:10:11;;;;;;;15.27;5.07;;;2.00;99.90;;;;;;2602745;54;20037;31
2024/01/13 11:12:48;;;;;;;12.43;4.97;;;2.10;99.90;;;;;;2602751;54;20044;31
2024/01/13 11:15:28;;;;;;;4.80;3.10;;;2.10;99.90;;;;;;2602632;54;20027;31
2024/01/13 11:18:04;;;;;;;7.22;3.47;;;2.00;99.90;;;;;;2602648;54;20027;31
2024/01/13 11:21:04;;;;;;;7.00;3.45;;;2.10;99.90;;;;;;2602914;54;20939;31
2024/01/13 11:23:42;;;;;;;7.15;3.13;;;2.00;99.90;;;;;;2602803;54;20048;31
2024/01/13 11:26:22;;;;;;;5.80;3.30;;;2.00;99.90;;;;;;2602919;54;20056;31
2024/01/13 11:28:58;;;;;;;5.47;2.83;;;2.00;99.90;;;;;;2602721;54;20955;31
2024/01/13 11:31:35;;;;;;;5.50;3.42;;;2.00;99.90;;;;;;2602684;54;20028;31
2024/01/13 11:34:20;;;;;;;8.90;3.75;;;2.00;99.90;;;;;;2620977;47;20034;31
2024/01/13 11:36:58;;;;;;;10.23;4.05;;;2.00;99.90;;;;;;2602713;54;20899;31
2024/01/13 11:39:32;;;;;;;8.45;4.35;;;2.00;99.90;;;;;;2602595;54;20100;31
2024/01/13 11:42:11;;;;;;;9.43;3.80;;;2.00;99.90;;;;;;2602651;54;20042;31
2024/01/13 11:44:47;;;;;;;9.95;4.35;;;2.00;99.90;;;;;;2602916;54;20031;31
2024/01/13 11:47:31;;;;;;;6.93;3.28;;;2.00;99.90;;;;;;2602646;54;20085;31
2024/01/13 11:50:07;;;;;;;7.40;3.70;;;2.00;99.90;;;;;;2613701;47;20081;31
2024/01/13 11:52:42;;;;;;;6.13;3.30;;;2.00;99.90;;;;;;2602565;54;20902;31
2024/01/13 11:55:17;;;;;;;6.60;3.60;;;2.00;99.90;;;;;;2602560;54;20108;31
2024/01/13 11:57:55;;;;;;;7.55;3.50;;;1.90;99.90;;;;;;2621130;47;20104;31
2024/01/13 12:00:38;;;;;;;6.35;3.97;;;2.00;99.90;;;;;;2602333;54;20052;31
2024/01/13 12:03:13;;;;;;;8.82;3.83;;;2.00;99.90;;;;;;2602647;54;20031;31
2024/01/13 12:05:48;;;;;;;7.50;3.75;;;2.00;99.90;;;;;;2621064;47;20082;31
2024/01/13 12:08:22;;;;;;;6.65;3.60;;;2.00;99.90;;;;;;2602591;54;20177;31
2024/01/13 12:10:58;;;;;;;6.70;3.80;;;2.00;99.90;;;;;;2602463;54;20085;31
2024/01/13 12:13:35;;;;;;;6.97;2.97;;;2.10;99.90;;;;;;2602680;54;20874;31
2024/01/13 12:16:11;;;;;;;6.80;3.83;;;2.10;99.90;;;;;;2602846;54;20898;31
2024/01/13 12:18:48;;;;;;;6.03;3.13;;;2.10;99.90;;;;;;2603527;54;20026;31
2024/01/13 12:21:24;;;;;;;5.95;2.92;;;2.10;99.90;;;;;;2603184;54;20038;31
2024/01/13 12:24:14;;;;;;;6.10;3.20;;;2.10;99.90;;;;;;2603540;54;20038;31
2024/01/13 12:26:49;;;;;;;4.88;2.88;;;2.20;99.90;;;;;;2621820;46;20239;31
2024/01/13 12:29:29;;;;;;;6.32;3.05;;;2.10;99.90;;;;;;2621954;46;20035;31
2024/01/13 12:32:06;;;;;;;6.50;3.28;;;2.10;99.90;;;;;;2603457;54;20030;31
2024/01/13 12:34:40;;;;;;;;;;;2.10;99.60;;;;;;2622224;46;20931;31
2024/01/13 12:37:16;;;;;;;6.18;2.83;;;2.10;99.90;;;;;;2603376;54;20728;31
2024/01/13 12:39:49;;;;;;;8.88;3.67;;;2.00;99.90;;;;;;2603316;54;22384;31
2024/01/13 12:42:24;;;;;;;6.75;3.40;;;2.00;99.90;;;;;;2603326;54;20031;31
2024/01/13 12:45:01;;;;;;;6.22;3.40;;;2.00;99.90;;;;;;2621640;46;20052;31
2024/01/13 12:47:38;;;;;;;6.20;3.08;;;2.00;99.90;;;;;;2603379;54;20031;31
2024/01/13 12:50:13;;;;;;;5.03;3.13;;;2.00;99.90;;;;;;2603242;54;20961;31
2024/01/13 12:52:49;;;;;;;6.80;2.97;;;2.00;99.90;;;;;;2603194;54;20237;31
2024/01/13 12:55:24;;;;;;;5.40;3.05;;;1.90;99.90;;;;;;2621902;46;20033;31
2024/01/13 12:57:58;;;;;;;5.00;2.65;;;1.90;99.90;;;;;;2603208;54;20299;31
2024/01/13 13:00:36;;;;;;;7.13;3.10;;;1.90;99.90;;;;;;2603217;54;20052;31
2024/01/13 13:03:12;;;;;;;6.72;3.03;;;1.90;99.90;;;;;;2603253;54;20030;31
2024/01/13 13:05:47;;;;;;;5.00;2.70;;;1.90;99.90;;;;;;2603293;54;20052;31
2024/01/13 13:08:23;;;;;;;6.37;2.90;;;1.90;99.90;;;;;;2603198;54;20952;31
2024/01/13 13:11:01;;;;;;;5.50;3.55;;;1.90;99.90;;;;;;2621804;46;20274;31
2024/01/13 13:13:36;;;;;;;5.18;2.90;;;1.90;99.90;;;;;;2603150;54;20741;31
2024/01/13 13:16:14;;;;;;;5.13;2.40;;;1.90;99.90;;;;;;2603382;54;20026;31
2024/01/13 13:18:49;;;;;;;5.70;2.70;;;1.80;99.90;;;;;;2603241;54;20095;31
2024/01/13 13:21:24;;;;;;;5.15;2.63;;;1.80;99.90;;;;;;2621573;46;20038;31
2024/01/13 13:23:59;;;;;;;5.53;2.65;;;1.80;99.90;;;;;;2621593;46;20031;31
2024/01/13 13:26:35;;;;;;;6.87;3.00;;;1.80;99.90;;;;;;2603416;54;20053;31
2024/01/13 13:29:09;;;;;;;6.00;3.00;;;1.80;99.90;;;;;;2603248;54;20869;31
2024/01/13 13:31:47;;;;;;;4.15;2.60;;;1.80;99.90;;;;;;2603200;54;20909;31
2024/01/13 13:34:22;;;;;;;5.85;3.10;;;1.80;99.90;;;;;;2602972;54;20037;31
2024/01/13 13:36:56;;;;;;;5.60;3.10;;;1.80;99.90;;;;;;2603329;54;20030;31
2024/01/13 13:39:36;;;;;;;8.25;3.95;;;1.70;99.90;;;;;;2602905;54;20027;31
2024/01/13 13:42:11;;;;;;;5.68;3.53;;;1.80;99.90;;;;;;2621484;46;20926;31
2024/01/13 13:44:46;;;;;;;9.50;4.30;;;1.80;99.90;;;;;;2602903;54;20036;31
2024/01/13 13:47:27;;;;;;;6.28;2.97;;;1.80;99.90;;;;;;2603032;54;20066;31
2024/01/13 13:50:07;;;;;;;5.22;2.88;;;1.80;99.90;;;;;;2602956;54;20037;31
2024/01/13 13:52:42;;;;;;;7.43;3.85;;;1.80;99.90;;;;;;2603045;54;20841;31
2024/01/13 13:55:18;;;;;;;7.75;3.47;;;1.80;99.90;;;;;;2602938;54;20038;31
2024/01/13 13:57:54;;;;;;;5.63;3.03;;;1.80;99.90;;;;;;2621681;46;20834;31